createdAt,value
2018-11-07T00:00:16.018Z,17.50
2018-11-07T00:01:16.009Z,14.80
2018-11-07T00:02:15.997Z,15.50
2018-11-07T00:03:15.985Z,15.80
2018-11-07T00:04:15.991Z,16.80
2018-11-07T00:05:15.962Z,13.10
2018-11-07T00:06:15.953Z,15.40
2018-11-07T00:07:15.941Z,17.60
2018-11-07T00:08:16.084Z,14.40
2018-11-07T00:09:15.954Z,16.00
2018-11-07T00:10:15.909Z,14.70
2018-11-07T00:11:15.898Z,13.70
2018-11-07T00:12:15.891Z,15.30
2018-11-07T00:13:15.873Z,17.10
2018-11-07T00:14:15.866Z,15.20
2018-11-07T00:15:15.866Z,14.40
2018-11-07T00:16:15.840Z,15.30
2018-11-07T00:17:15.830Z,14.60
2018-11-07T00:18:15.834Z,14.90
2018-11-07T00:19:15.807Z,16.60
2018-11-07T00:20:15.810Z,13.50
2018-11-07T00:21:15.785Z,14.50
2018-11-07T00:22:15.777Z,18.80
2018-11-07T00:23:15.766Z,16.10
2018-11-07T00:24:15.752Z,15.20
2018-11-07T00:25:15.757Z,14.50
2018-11-07T00:26:15.738Z,13.90
2018-11-07T00:27:15.721Z,16.10
2018-11-07T00:28:15.708Z,14.70
2018-11-07T00:29:15.698Z,15.20
2018-11-07T00:30:15.751Z,15.40
2018-11-07T00:31:15.674Z,15.60
2018-11-07T00:32:15.663Z,16.30
2018-11-07T00:33:15.654Z,15.50
2018-11-07T00:34:15.639Z,16.40
2018-11-07T00:35:15.805Z,16.20
2018-11-07T00:36:15.618Z,15.70
2018-11-07T00:37:15.608Z,16.80
2018-11-07T00:38:15.598Z,15.40
2018-11-07T00:39:15.584Z,14.50
2018-11-07T00:40:15.586Z,14.50
2018-11-07T00:41:15.576Z,18.20
2018-11-07T00:42:15.598Z,16.00
2018-11-07T00:43:15.553Z,16.00
2018-11-07T00:44:15.527Z,13.90
2018-11-07T00:45:15.517Z,15.50
2018-11-07T00:46:15.506Z,15.10
2018-11-07T00:47:15.524Z,17.70
2018-11-07T00:48:15.483Z,16.60
2018-11-07T00:49:15.473Z,16.00
2018-11-07T00:50:15.462Z,16.20
2018-11-07T00:51:15.456Z,14.40
2018-11-07T00:52:15.440Z,17.40
2018-11-07T00:53:15.460Z,13.40
2018-11-07T00:54:15.417Z,15.50
2018-11-07T00:55:15.405Z,15.90
2018-11-07T00:56:15.396Z,14.60
2018-11-07T00:57:15.384Z,17.20
2018-11-07T00:58:15.462Z,14.50
2018-11-07T00:59:15.376Z,16.20
2018-11-07T01:00:15.354Z,15.60
2018-11-07T01:01:15.340Z,16.20
2018-11-07T01:02:15.335Z,14.50
2018-11-07T01:03:15.334Z,17.50
2018-11-07T01:04:15.345Z,17.00
2018-11-07T01:05:15.363Z,15.50
2018-11-07T01:06:15.284Z,16.50
2018-11-07T01:07:15.272Z,16.50
2018-11-07T01:08:15.261Z,16.00
2018-11-07T01:09:15.261Z,16.50
2018-11-07T01:10:15.268Z,14.20
2018-11-07T01:11:15.228Z,15.60
2018-11-07T01:12:15.216Z,17.60
2018-11-07T01:13:15.214Z,14.00
2018-11-07T01:14:15.194Z,13.70
2018-11-07T01:15:15.201Z,15.40
2018-11-07T01:16:15.171Z,14.50
2018-11-07T01:17:15.162Z,18.50
2018-11-07T01:18:15.180Z,16.40
2018-11-07T01:19:15.152Z,16.40
2018-11-07T01:20:15.158Z,18.80
2018-11-07T01:21:15.119Z,15.60
2018-11-07T01:22:15.156Z,14.50
2018-11-07T01:23:15.094Z,16.50
2018-11-07T01:24:15.082Z,15.50
2018-11-07T01:25:15.072Z,17.50
2018-11-07T01:26:15.079Z,15.30
2018-11-07T01:27:15.049Z,15.30
2018-11-07T01:28:15.076Z,16.50
2018-11-07T01:29:15.028Z,15.20
2018-11-07T01:30:15.017Z,16.00
2018-11-07T01:31:15.040Z,15.20
2018-11-07T01:32:14.994Z,14.90
2018-11-07T01:33:14.984Z,14.80
2018-11-07T01:34:14.970Z,14.20
2018-11-07T01:35:14.960Z,15.60
2018-11-07T01:36:14.949Z,17.60
2018-11-07T01:37:14.952Z,15.30
2018-11-07T01:38:14.928Z,14.70
2018-11-07T01:39:14.916Z,14.60
2018-11-07T01:40:14.951Z,18.00
2018-11-07T01:41:14.920Z,13.30
2018-11-07T01:42:14.883Z,15.70
2018-11-07T01:43:14.874Z,15.40
2018-11-07T01:44:14.865Z,15.30
2018-11-07T01:45:14.850Z,15.40
2018-11-07T01:46:14.839Z,17.00
2018-11-07T01:47:14.842Z,15.60
2018-11-07T01:48:14.831Z,14.70
2018-11-07T01:49:14.805Z,16.50
2018-11-07T01:50:14.796Z,15.80
2018-11-07T01:51:14.785Z,17.50
2018-11-07T01:52:14.774Z,17.90
2018-11-07T01:53:14.788Z,17.90
2018-11-07T01:54:14.749Z,17.70
2018-11-07T01:55:14.742Z,15.80
2018-11-07T01:56:14.728Z,15.00
2018-11-07T01:57:14.717Z,14.40
2018-11-07T01:58:14.706Z,17.90
2018-11-07T01:59:14.728Z,13.90
2018-11-07T02:00:14.683Z,14.30
2018-11-07T02:01:14.674Z,14.60
2018-11-07T02:02:14.662Z,14.60
2018-11-07T02:03:14.650Z,15.00
2018-11-07T02:04:14.640Z,13.90
2018-11-07T02:05:14.658Z,14.20
2018-11-07T02:06:14.618Z,16.80
2018-11-07T02:07:14.611Z,13.90
2018-11-07T02:08:14.601Z,15.60
2018-11-07T02:09:14.586Z,16.80
2018-11-07T02:10:14.576Z,17.10
2018-11-07T02:11:14.580Z,18.40
2018-11-07T02:12:14.556Z,18.40
2018-11-07T02:13:14.548Z,17.20
2018-11-07T02:14:14.532Z,19.40
2018-11-07T02:15:14.521Z,18.60
2018-11-07T02:16:14.546Z,16.70
2018-11-07T02:17:14.500Z,15.50
2018-11-07T02:18:14.488Z,15.00
2018-11-07T02:19:14.479Z,16.50
2018-11-07T02:20:14.467Z,15.40
2018-11-07T02:21:14.456Z,17.00
2018-11-07T02:22:14.477Z,18.10
2018-11-07T02:23:14.436Z,15.60
2018-11-07T02:24:14.469Z,17.50
2018-11-07T02:25:14.419Z,16.40
2018-11-07T02:26:14.439Z,14.00
2018-11-07T02:27:14.391Z,15.20
2018-11-07T02:28:14.397Z,14.40
2018-11-07T02:29:14.367Z,15.20
2018-11-07T02:30:14.360Z,13.30
2018-11-07T02:31:14.347Z,14.90
2018-11-07T02:32:14.354Z,13.30
2018-11-07T02:33:14.325Z,14.20
2018-11-07T02:34:14.314Z,14.50
2018-11-07T02:35:14.304Z,15.50
2018-11-07T02:36:14.293Z,15.90
2018-11-07T02:37:14.325Z,16.00
2018-11-07T02:38:14.271Z,14.40
2018-11-07T02:39:14.262Z,13.50
2018-11-07T02:40:14.248Z,14.00
2018-11-07T02:41:14.238Z,16.10
2018-11-07T02:42:14.227Z,14.40
2018-11-07T02:43:14.255Z,15.80
2018-11-07T02:44:14.203Z,16.70
2018-11-07T02:45:14.196Z,17.10
2018-11-07T02:46:14.186Z,18.90
2018-11-07T02:47:14.174Z,15.00
2018-11-07T02:48:14.161Z,19.00
2018-11-07T02:49:14.166Z,19.80
2018-11-07T02:50:14.139Z,19.50
2018-11-07T02:51:14.128Z,15.60
2018-11-07T02:52:14.118Z,16.60
2018-11-07T02:53:14.124Z,16.10
2018-11-07T02:54:14.095Z,16.90
2018-11-07T02:55:14.085Z,15.70
2018-11-07T02:56:14.074Z,16.40
2018-11-07T02:57:14.076Z,17.20
2018-11-07T02:58:14.053Z,15.50
2018-11-07T02:59:14.041Z,18.40
2018-11-07T03:00:14.032Z,18.30
2018-11-07T03:01:14.116Z,18.50
2018-11-07T03:02:14.041Z,17.20
2018-11-07T03:03:13.997Z,16.50
2018-11-07T03:04:14.034Z,16.30
2018-11-07T03:05:13.974Z,15.80
2018-11-07T03:06:13.963Z,18.80
2018-11-07T03:07:13.953Z,16.90
2018-11-07T03:08:13.956Z,15.40
2018-11-07T03:09:13.932Z,14.70
2018-11-07T03:10:13.945Z,16.80
2018-11-07T03:11:13.910Z,14.90
2018-11-07T03:12:13.898Z,17.10
2018-11-07T03:13:13.901Z,16.60
2018-11-07T03:14:13.876Z,18.20
2018-11-07T03:15:13.864Z,14.60
2018-11-07T03:16:13.885Z,14.40
2018-11-07T03:17:13.845Z,15.90
2018-11-07T03:18:13.832Z,18.30
2018-11-07T03:19:13.823Z,15.80
2018-11-07T03:20:13.809Z,16.70
2018-11-07T03:21:13.799Z,14.10
2018-11-07T03:22:13.814Z,16.80
2018-11-07T03:23:13.778Z,18.10
2018-11-07T03:24:13.763Z,16.80
2018-11-07T03:25:13.755Z,14.40
2018-11-07T03:26:13.743Z,17.40
2018-11-07T03:27:13.732Z,14.30
2018-11-07T03:28:13.734Z,16.60
2018-11-07T03:29:13.708Z,16.60
2018-11-07T03:30:13.699Z,15.10
2018-11-07T03:31:13.691Z,16.90
2018-11-07T03:32:13.692Z,15.60
2018-11-07T03:33:13.665Z,16.60
2018-11-07T03:34:13.652Z,14.70
2018-11-07T03:35:13.643Z,16.50
2018-11-07T03:36:13.646Z,17.60
2018-11-07T03:37:13.663Z,18.30
2018-11-07T03:38:13.609Z,15.20
2018-11-07T03:39:13.598Z,16.50
2018-11-07T03:40:13.589Z,14.30
2018-11-07T03:41:13.577Z,17.50
2018-11-07T03:42:13.565Z,15.90
2018-11-07T03:43:13.580Z,15.20
2018-11-07T03:44:13.541Z,15.90
2018-11-07T03:45:13.532Z,15.40
2018-11-07T03:46:13.520Z,15.20
2018-11-07T03:47:13.510Z,14.90
2018-11-07T03:48:13.499Z,14.10
2018-11-07T03:49:13.500Z,16.30
2018-11-07T03:50:13.479Z,14.20
2018-11-07T03:51:13.468Z,14.40
2018-11-07T03:52:13.471Z,14.70
2018-11-07T03:53:13.554Z,14.30
2018-11-07T03:54:13.431Z,12.30
2018-11-07T03:55:13.420Z,14.20
2018-11-07T03:56:13.411Z,13.60
2018-11-07T03:57:13.409Z,14.20
2018-11-07T03:58:13.394Z,13.60
2018-11-07T03:59:13.375Z,12.80
2018-11-07T04:00:13.380Z,16.50
2018-11-07T04:01:13.353Z,15.80
2018-11-07T04:02:13.383Z,15.30
2018-11-07T04:03:13.338Z,14.60
2018-11-07T04:04:13.320Z,12.70
2018-11-07T04:05:13.310Z,13.30
2018-11-07T04:06:13.299Z,13.10
2018-11-07T04:07:13.288Z,13.60
2018-11-07T04:08:13.316Z,15.10
2018-11-07T04:09:13.267Z,15.30
2018-11-07T04:10:13.256Z,15.30
2018-11-07T04:11:13.245Z,15.20
2018-11-07T04:12:13.233Z,17.90
2018-11-07T04:13:13.221Z,13.20
2018-11-07T04:14:13.238Z,13.70
2018-11-07T04:15:13.200Z,14.70
2018-11-07T04:16:13.189Z,15.10
2018-11-07T04:17:13.179Z,14.00
2018-11-07T04:18:13.165Z,14.30
2018-11-07T04:19:13.156Z,14.80
2018-11-07T04:20:13.183Z,13.80
2018-11-07T04:21:13.131Z,14.70
2018-11-07T04:22:13.122Z,14.80
2018-11-07T04:23:13.110Z,13.20
2018-11-07T04:24:13.099Z,15.40
2018-11-07T04:25:13.088Z,15.80
2018-11-07T04:26:13.103Z,16.20
2018-11-07T04:27:13.066Z,17.20
2018-11-07T04:28:13.098Z,16.60
2018-11-07T04:29:13.044Z,14.60
2018-11-07T04:30:13.033Z,16.00
2018-11-07T04:31:13.022Z,20.10
2018-11-07T04:32:13.024Z,16.80
2018-11-07T04:33:13.001Z,17.70
2018-11-07T04:34:12.988Z,13.80
2018-11-07T04:35:12.991Z,15.70
2018-11-07T04:36:12.972Z,16.10
2018-11-07T04:37:12.960Z,13.50
2018-11-07T04:38:12.945Z,14.80
2018-11-07T04:39:13.062Z,13.70
2018-11-07T04:40:12.936Z,15.20
2018-11-07T04:41:12.911Z,14.00
2018-11-07T04:42:12.901Z,12.40
2018-11-07T04:43:12.889Z,15.40
2018-11-07T04:44:12.879Z,15.40
2018-11-07T04:45:12.881Z,13.70
2018-11-07T04:46:12.856Z,14.00
2018-11-07T04:47:12.859Z,13.60
2018-11-07T04:48:12.834Z,15.30
2018-11-07T04:49:12.824Z,17.80
2018-11-07T04:50:12.812Z,14.20
2018-11-07T04:51:12.803Z,13.20
2018-11-07T04:52:12.804Z,13.70
2018-11-07T04:53:12.779Z,11.60
2018-11-07T04:54:12.768Z,13.30
2018-11-07T04:55:12.756Z,11.50
2018-11-07T04:56:12.776Z,12.00
2018-11-07T04:57:12.734Z,13.60
2018-11-07T04:58:12.723Z,12.70
2018-11-07T04:59:12.712Z,14.80
2018-11-07T05:00:12.780Z,12.90
2018-11-07T05:01:12.691Z,13.30
2018-11-07T05:02:12.717Z,12.00
2018-11-07T05:03:12.669Z,17.70
2018-11-07T05:04:12.658Z,13.30
2018-11-07T05:05:12.647Z,14.80
2018-11-07T05:06:12.635Z,14.10
2018-11-07T05:07:12.625Z,13.20
2018-11-07T05:08:12.630Z,15.90
2018-11-07T05:09:12.617Z,13.90
2018-11-07T05:10:12.592Z,15.30
2018-11-07T05:11:12.582Z,14.00
2018-11-07T05:12:12.570Z,17.20
2018-11-07T05:13:12.589Z,15.30
2018-11-07T05:14:12.547Z,15.50
2018-11-07T05:15:12.538Z,12.90
2018-11-07T05:16:12.530Z,13.90
2018-11-07T05:17:12.520Z,14.50
2018-11-07T05:18:12.506Z,13.00
2018-11-07T05:19:12.508Z,13.10
2018-11-07T05:20:12.517Z,15.40
2018-11-07T05:21:12.474Z,14.40
2018-11-07T05:22:12.463Z,15.10
2018-11-07T05:23:12.451Z,14.80
2018-11-07T05:24:12.479Z,15.00
2018-11-07T05:25:12.430Z,16.60
2018-11-07T05:26:12.449Z,14.20
2018-11-07T05:27:12.406Z,16.30
2018-11-07T05:28:12.397Z,16.70
2018-11-07T05:29:12.386Z,15.10
2018-11-07T05:30:12.384Z,14.10
2018-11-07T05:31:12.375Z,15.20
2018-11-07T05:32:12.370Z,13.10
2018-11-07T05:33:12.342Z,15.00
2018-11-07T05:34:12.331Z,14.10
2018-11-07T05:35:12.320Z,16.30
2018-11-07T05:36:12.310Z,15.30
2018-11-07T05:37:12.311Z,16.30
2018-11-07T05:38:12.289Z,16.20
2018-11-07T05:39:12.278Z,17.40
2018-11-07T05:40:12.266Z,16.90
2018-11-07T05:41:12.388Z,16.60
2018-11-07T05:42:12.276Z,18.90
2018-11-07T05:43:12.233Z,18.90
2018-11-07T05:44:12.224Z,19.50
2018-11-07T05:45:12.212Z,20.00
2018-11-07T05:46:12.202Z,17.50
2018-11-07T05:47:12.189Z,16.40
2018-11-07T05:48:12.194Z,17.10
2018-11-07T05:49:12.283Z,16.00
2018-11-07T05:50:12.159Z,17.30
2018-11-07T05:51:12.147Z,16.20
2018-11-07T05:52:12.137Z,16.50
2018-11-07T05:53:12.135Z,17.20
2018-11-07T05:54:12.129Z,15.00
2018-11-07T05:55:12.104Z,17.30
2018-11-07T05:56:12.093Z,16.10
2018-11-07T05:57:12.092Z,19.30
2018-11-07T05:58:12.073Z,17.80
2018-11-07T05:59:12.078Z,19.40
2018-11-07T06:00:12.060Z,17.90
2018-11-07T06:01:12.043Z,15.40
2018-11-07T06:02:12.028Z,17.30
2018-11-07T06:03:12.015Z,22.30
2018-11-07T06:04:12.006Z,20.00
2018-11-07T06:05:12.004Z,21.50
2018-11-07T06:06:11.983Z,24.30
2018-11-07T06:07:11.973Z,17.70
2018-11-07T06:08:11.961Z,18.30
2018-11-07T06:09:11.952Z,17.00
2018-11-07T06:10:11.972Z,19.90
2018-11-07T06:11:11.984Z,17.30
2018-11-07T06:12:11.919Z,15.70
2018-11-07T06:13:11.907Z,14.50
2018-11-07T06:14:11.895Z,16.00
2018-11-07T06:15:11.886Z,14.50
2018-11-07T06:16:11.977Z,15.20
2018-11-07T06:17:11.864Z,14.30
2018-11-07T06:18:11.852Z,16.70
2018-11-07T06:19:11.842Z,15.60
2018-11-07T06:20:11.855Z,15.80
2018-11-07T06:21:11.865Z,16.00
2018-11-07T06:22:11.808Z,14.90
2018-11-07T06:23:11.802Z,13.80
2018-11-07T06:24:11.842Z,14.10
2018-11-07T06:25:11.774Z,13.10
2018-11-07T06:26:11.773Z,14.80
2018-11-07T06:27:11.755Z,13.90
2018-11-07T06:28:11.741Z,14.70
2018-11-07T06:29:11.732Z,16.50
2018-11-07T06:30:11.719Z,13.50
2018-11-07T06:31:11.720Z,13.80
2018-11-07T06:32:11.699Z,16.90
2018-11-07T06:33:11.687Z,13.30
2018-11-07T06:34:11.707Z,13.80
2018-11-07T06:35:11.666Z,16.90
2018-11-07T06:36:11.665Z,17.60
2018-11-07T06:37:11.644Z,18.10
2018-11-07T06:38:11.636Z,17.00
2018-11-07T06:39:11.646Z,16.10
2018-11-07T06:40:11.609Z,16.80
2018-11-07T06:41:11.599Z,15.30
2018-11-07T06:42:11.589Z,15.90
2018-11-07T06:43:11.577Z,14.80
2018-11-07T06:44:11.566Z,15.10
2018-11-07T06:45:13.112Z,15.40
2018-11-07T06:46:11.542Z,16.00
2018-11-07T06:47:13.100Z,14.80
2018-11-07T06:48:11.523Z,14.90
2018-11-07T06:49:11.510Z,13.50
2018-11-07T06:50:11.500Z,13.00
2018-11-07T06:51:11.498Z,15.60
2018-11-07T06:52:11.504Z,17.10
2018-11-07T06:53:11.465Z,12.90
2018-11-07T06:54:11.453Z,12.50
2018-11-07T06:55:11.487Z,12.80
2018-11-07T06:56:11.435Z,15.10
2018-11-07T06:57:11.421Z,12.80
2018-11-07T06:58:11.425Z,12.60
2018-11-07T06:59:11.400Z,12.60
2018-11-07T07:00:11.388Z,12.10
2018-11-07T07:01:11.438Z,11.50
2018-11-07T07:02:11.365Z,12.60
2018-11-07T07:03:11.365Z,12.50
2018-11-07T07:04:11.347Z,11.50
2018-11-07T07:05:11.333Z,13.70
2018-11-07T07:06:11.323Z,11.70
2018-11-07T07:07:11.311Z,12.80
2018-11-07T07:08:11.357Z,11.70
2018-11-07T07:09:11.288Z,9.90
2018-11-07T07:10:11.278Z,10.40
2018-11-07T07:11:11.270Z,9.80
2018-11-07T07:12:11.257Z,10.60
2018-11-07T07:13:11.254Z,10.90
2018-11-07T07:14:11.230Z,10.60
2018-11-07T07:15:11.223Z,11.80
2018-11-07T07:16:11.215Z,10.20
2018-11-07T07:17:11.200Z,10.50
2018-11-07T07:18:11.364Z,9.80
2018-11-07T07:19:11.179Z,10.30
2018-11-07T07:20:11.168Z,10.10
2018-11-07T07:21:11.160Z,12.60
2018-11-07T07:22:11.145Z,12.80
2018-11-07T07:23:11.134Z,11.10
2018-11-07T07:24:11.136Z,10.30
2018-11-07T07:25:11.110Z,9.10
2018-11-07T07:26:11.107Z,8.80
2018-11-07T07:27:11.090Z,9.80
2018-11-07T07:28:11.079Z,9.70
2018-11-07T07:29:11.081Z,8.90
2018-11-07T07:30:11.068Z,9.20
2018-11-07T07:31:11.048Z,6.90
2018-11-07T07:32:11.037Z,8.20
2018-11-07T07:33:11.153Z,8.20
2018-11-07T07:34:11.027Z,7.80
2018-11-07T07:35:11.003Z,7.70
2018-11-07T07:36:11.005Z,7.20
2018-11-07T07:37:10.989Z,7.20
2018-11-07T07:38:10.970Z,18.40
2018-11-07T07:39:10.974Z,12.00
2018-11-07T07:40:10.948Z,25.10
2018-11-07T07:41:10.938Z,12.00
2018-11-07T07:42:10.925Z,10.50
2018-11-07T07:43:10.914Z,10.50
2018-11-07T07:44:10.917Z,9.70
2018-11-07T07:45:10.892Z,7.20
2018-11-07T07:46:10.881Z,6.50
2018-11-07T07:47:10.883Z,6.90
2018-11-07T07:48:10.858Z,7.40
2018-11-07T07:49:10.868Z,14.70
2018-11-07T07:50:10.874Z,9.30
2018-11-07T07:51:10.825Z,8.60
2018-11-07T07:52:10.815Z,10.10
2018-11-07T07:53:10.929Z,6.00
2018-11-07T07:54:10.792Z,5.40
2018-11-07T07:55:10.781Z,5.40
2018-11-07T07:56:10.785Z,4.80
2018-11-07T07:57:10.762Z,5.60
2018-11-07T07:58:10.749Z,6.50
2018-11-07T07:59:10.741Z,7.00
2018-11-07T08:00:10.728Z,5.50
2018-11-07T08:01:10.732Z,7.40
2018-11-07T08:02:10.705Z,7.30
2018-11-07T08:03:10.694Z,7.10
2018-11-07T08:04:10.687Z,7.70
2018-11-07T08:05:10.671Z,7.00
2018-11-07T08:06:10.675Z,5.90
2018-11-07T08:07:10.690Z,6.00
2018-11-07T08:08:10.639Z,6.60
2018-11-07T08:09:10.629Z,7.30
2018-11-07T08:10:10.623Z,7.30
2018-11-07T08:11:10.608Z,5.20
2018-11-07T08:12:10.599Z,5.90
2018-11-07T08:13:10.602Z,7.40
2018-11-07T08:14:10.576Z,6.70
2018-11-07T08:15:10.566Z,8.70
2018-11-07T08:16:10.555Z,7.40
2018-11-07T08:17:10.574Z,7.00
2018-11-07T08:18:10.532Z,8.90
2018-11-07T08:19:10.521Z,7.00
2018-11-07T08:20:10.511Z,8.70
2018-11-07T08:21:10.589Z,6.50
2018-11-07T08:22:10.487Z,6.90
2018-11-07T08:23:10.507Z,6.00
2018-11-07T08:24:10.468Z,8.10
2018-11-07T08:25:10.454Z,7.10
2018-11-07T08:26:10.443Z,5.60
2018-11-07T08:27:10.430Z,6.80
2018-11-07T08:28:10.419Z,6.20
2018-11-07T08:29:10.482Z,4.00
2018-11-07T08:30:10.396Z,8.30
2018-11-07T08:31:10.399Z,6.20
2018-11-07T08:32:10.376Z,5.40
2018-11-07T08:33:10.362Z,5.10
2018-11-07T08:34:10.365Z,6.00
2018-11-07T08:35:10.343Z,5.00
2018-11-07T08:36:10.329Z,4.80
2018-11-07T08:37:10.320Z,5.30
2018-11-07T08:38:10.311Z,5.10
2018-11-07T08:39:10.310Z,5.40
2018-11-07T08:40:10.300Z,6.30
2018-11-07T08:41:10.275Z,4.80
2018-11-07T08:42:10.270Z,5.20
2018-11-07T08:43:10.258Z,5.10
2018-11-07T08:44:10.255Z,5.90
2018-11-07T08:45:10.244Z,4.90
2018-11-07T08:46:10.221Z,6.00
2018-11-07T08:47:10.211Z,5.20
2018-11-07T08:48:10.207Z,6.50
2018-11-07T08:49:10.187Z,6.10
2018-11-07T08:50:10.208Z,4.60
2018-11-07T08:51:10.166Z,4.90
2018-11-07T08:52:10.159Z,5.50
2018-11-07T08:53:10.143Z,5.00
2018-11-07T08:54:10.133Z,4.00
2018-11-07T08:55:10.344Z,6.80
2018-11-07T08:56:10.128Z,6.40
2018-11-07T08:57:10.101Z,4.80
2018-11-07T08:58:10.090Z,4.30
2018-11-07T08:59:10.097Z,4.00
2018-11-07T09:00:10.069Z,4.10
2018-11-07T09:01:10.129Z,3.90
2018-11-07T09:02:10.056Z,4.80
2018-11-07T09:03:10.049Z,3.90
2018-11-07T09:04:10.025Z,4.10
2018-11-07T09:05:10.020Z,6.40
2018-11-07T09:06:10.005Z,4.00
2018-11-07T09:07:10.023Z,5.30
2018-11-07T09:08:09.981Z,8.10
2018-11-07T09:09:09.973Z,6.40
2018-11-07T09:10:09.960Z,4.50
2018-11-07T09:11:09.948Z,3.40
2018-11-07T09:12:09.990Z,3.90
2018-11-07T09:13:09.941Z,4.00
2018-11-07T09:14:09.913Z,4.30
2018-11-07T09:15:09.904Z,5.20
2018-11-07T09:16:09.900Z,4.60
2018-11-07T09:17:09.922Z,5.30
2018-11-07T09:18:09.871Z,5.10
2018-11-07T09:19:09.861Z,6.00
2018-11-07T09:20:09.849Z,5.30
2018-11-07T09:21:09.839Z,3.80
2018-11-07T09:22:09.828Z,4.00
2018-11-07T09:23:09.832Z,3.90
2018-11-07T09:24:09.805Z,4.90
2018-11-07T09:25:09.810Z,3.90
2018-11-07T09:26:09.783Z,4.20
2018-11-07T09:27:09.772Z,5.30
2018-11-07T09:28:09.808Z,5.00
2018-11-07T09:29:09.810Z,4.70
2018-11-07T09:30:09.739Z,4.00
2018-11-07T09:31:09.729Z,4.10
2018-11-07T09:32:09.720Z,6.20
2018-11-07T09:33:09.721Z,7.30
2018-11-07T09:34:09.709Z,4.30
2018-11-07T09:35:09.685Z,3.90
2018-11-07T09:36:09.673Z,3.10
2018-11-07T09:37:09.662Z,3.60
2018-11-07T09:38:09.652Z,4.20
2018-11-07T09:39:09.655Z,4.50
2018-11-07T09:40:09.630Z,3.50
2018-11-07T09:41:09.619Z,5.20
2018-11-07T09:42:09.607Z,3.10
2018-11-07T09:43:09.601Z,3.70
2018-11-07T09:44:09.599Z,4.90
2018-11-07T09:45:09.575Z,3.70
2018-11-07T09:46:09.564Z,4.70
2018-11-07T09:47:09.552Z,5.70
2018-11-07T09:48:09.571Z,6.40
2018-11-07T09:49:09.544Z,3.10
2018-11-07T09:50:09.533Z,3.40
2018-11-07T09:51:09.509Z,3.70
2018-11-07T09:52:09.503Z,3.70
2018-11-07T09:53:09.486Z,3.80
2018-11-07T09:54:09.542Z,5.20
2018-11-07T09:55:09.464Z,3.00
2018-11-07T09:56:09.489Z,4.00
2018-11-07T09:57:09.442Z,4.60
2018-11-07T09:58:09.432Z,4.70
2018-11-07T09:59:09.420Z,2.30
2018-11-07T10:00:09.409Z,3.70
2018-11-07T10:01:09.399Z,3.10
2018-11-07T10:02:09.404Z,3.00
2018-11-07T10:03:09.376Z,3.50
2018-11-07T10:04:09.367Z,5.00
2018-11-07T10:05:09.357Z,3.10
2018-11-07T10:06:09.345Z,4.90
2018-11-07T10:07:09.358Z,2.50
2018-11-07T10:08:09.322Z,3.20
2018-11-07T10:09:09.312Z,3.40
2018-11-07T10:10:09.325Z,3.40
2018-11-07T10:11:09.305Z,3.60
2018-11-07T10:12:09.280Z,4.30
2018-11-07T10:13:09.272Z,5.20
2018-11-07T10:14:09.258Z,4.30
2018-11-07T10:15:09.250Z,3.10
2018-11-07T10:16:09.258Z,1.80
2018-11-07T10:17:09.240Z,2.70
2018-11-07T10:18:09.215Z,3.70
2018-11-07T10:19:09.204Z,3.00
2018-11-07T10:20:09.197Z,2.20
2018-11-07T10:21:09.183Z,3.40
2018-11-07T10:22:09.195Z,4.00
2018-11-07T10:23:09.176Z,2.00
2018-11-07T10:24:09.151Z,3.30
2018-11-07T10:25:09.147Z,2.50
2018-11-07T10:26:09.157Z,3.00
2018-11-07T10:27:09.238Z,2.40
2018-11-07T10:28:09.622Z,2.30
2018-11-07T10:29:09.500Z,3.10
2018-11-07T10:30:09.345Z,2.40
2018-11-07T10:31:09.075Z,2.00
2018-11-07T10:32:09.078Z,2.30
2018-11-07T10:33:09.070Z,2.70
2018-11-07T10:34:09.041Z,3.70
2018-11-07T10:35:09.033Z,3.00
2018-11-07T10:36:09.021Z,3.00
2018-11-07T10:37:09.013Z,3.00
2018-11-07T10:38:09.217Z,4.30
2018-11-07T10:39:08.991Z,2.70
2018-11-07T10:40:08.978Z,2.20
2018-11-07T10:41:08.967Z,3.20
2018-11-07T10:42:08.957Z,2.90
2018-11-07T10:43:08.946Z,2.80
2018-11-07T10:44:09.004Z,3.20
2018-11-07T10:45:08.923Z,2.50
2018-11-07T10:46:08.998Z,4.80
2018-11-07T10:47:08.906Z,3.20
2018-11-07T10:48:08.893Z,2.00
2018-11-07T10:49:08.880Z,2.90
2018-11-07T10:50:08.881Z,2.60
2018-11-07T10:51:08.857Z,3.20
2018-11-07T10:52:08.846Z,2.80
2018-11-07T10:53:08.836Z,4.20
2018-11-07T10:54:08.821Z,1.80
2018-11-07T10:55:08.830Z,1.70
2018-11-07T10:56:08.806Z,3.20
2018-11-07T10:57:08.793Z,2.50
2018-11-07T10:58:08.781Z,2.90
2018-11-07T10:59:08.772Z,2.10
2018-11-07T11:00:08.759Z,2.60
2018-11-07T11:01:08.779Z,4.20
2018-11-07T11:02:08.737Z,2.30
2018-11-07T11:03:08.729Z,2.30
2018-11-07T11:04:08.715Z,1.80
2018-11-07T11:05:08.847Z,2.10
2018-11-07T11:06:08.696Z,2.20
2018-11-07T11:07:08.696Z,2.70
2018-11-07T11:08:08.672Z,2.50
2018-11-07T11:09:08.664Z,2.60
2018-11-07T11:10:08.689Z,1.90
2018-11-07T11:11:08.661Z,2.80
2018-11-07T11:12:08.634Z,3.20
2018-11-07T11:13:08.619Z,3.20
2018-11-07T11:14:08.607Z,2.80
2018-11-07T11:15:08.595Z,1.90
2018-11-07T11:16:08.598Z,4.30
2018-11-07T11:17:08.596Z,2.70
2018-11-07T11:18:08.563Z,2.30
2018-11-07T11:19:08.552Z,2.50
2018-11-07T11:20:08.541Z,3.30
2018-11-07T11:21:08.547Z,3.40
2018-11-07T11:22:08.560Z,2.40
2018-11-07T11:23:08.507Z,4.40
2018-11-07T11:24:08.502Z,2.00
2018-11-07T11:25:08.485Z,1.80
2018-11-07T11:26:08.474Z,2.10
2018-11-07T11:27:08.535Z,1.70
2018-11-07T11:28:08.466Z,2.80
2018-11-07T11:29:08.441Z,2.70
2018-11-07T11:30:08.429Z,3.00
2018-11-07T11:31:08.418Z,3.20
2018-11-07T11:32:08.421Z,2.20
2018-11-07T11:33:08.397Z,3.20
2018-11-07T11:34:08.567Z,2.70
2018-11-07T11:35:08.584Z,2.10
2018-11-07T11:36:08.363Z,2.70
2018-11-07T11:37:08.400Z,2.70
2018-11-07T11:38:08.339Z,2.00
2018-11-07T11:39:08.342Z,2.30
2018-11-07T11:40:08.318Z,1.70
2018-11-07T11:41:08.511Z,2.70
2018-11-07T11:42:08.292Z,3.20
2018-11-07T11:43:08.284Z,3.80
2018-11-07T11:44:08.282Z,3.00
2018-11-07T11:45:08.259Z,1.80
2018-11-07T11:46:08.251Z,2.20
2018-11-07T11:47:08.243Z,2.30
2018-11-07T11:48:08.227Z,2.10
2018-11-07T11:49:08.249Z,2.10
2018-11-07T11:50:08.203Z,1.90
2018-11-07T11:51:08.232Z,2.40
2018-11-07T11:52:08.183Z,2.60
2018-11-07T11:53:08.171Z,1.30
2018-11-07T11:54:08.175Z,1.30
2018-11-07T11:55:08.185Z,2.10
2018-11-07T11:56:08.141Z,1.40
2018-11-07T11:57:08.132Z,4.50
2018-11-07T11:58:08.117Z,2.10
2018-11-07T11:59:08.221Z,2.50
2018-11-07T12:00:08.509Z,1.40
2018-11-07T12:01:08.085Z,1.50
2018-11-07T12:02:08.154Z,2.90
2018-11-07T12:03:08.065Z,2.10
2018-11-07T12:04:08.068Z,1.60
2018-11-07T12:05:08.045Z,1.20
2018-11-07T12:06:08.033Z,2.10
2018-11-07T12:07:08.034Z,1.20
2018-11-07T12:08:08.052Z,2.60
2018-11-07T12:09:08.008Z,3.20
2018-11-07T12:10:07.990Z,2.20
2018-11-07T12:11:07.993Z,2.70
2018-11-07T12:12:08.028Z,1.40
2018-11-07T12:13:08.002Z,1.70
2018-11-07T12:14:07.944Z,2.10
2018-11-07T12:15:07.959Z,2.40
2018-11-07T12:16:07.944Z,2.30
2018-11-07T12:17:07.911Z,1.20
2018-11-07T12:18:07.919Z,1.80
2018-11-07T12:19:07.889Z,2.00
2018-11-07T12:20:07.881Z,2.10
2018-11-07T12:21:07.939Z,3.40
2018-11-07T12:22:07.857Z,2.60
2018-11-07T12:23:07.883Z,1.90
2018-11-07T12:24:07.833Z,2.20
2018-11-07T12:25:07.824Z,3.60
2018-11-07T12:26:07.814Z,1.10
2018-11-07T12:27:07.802Z,1.10
2018-11-07T12:28:07.791Z,1.60
2018-11-07T12:29:07.794Z,1.50
2018-11-07T12:30:07.769Z,1.40
2018-11-07T12:31:07.759Z,2.80
2018-11-07T12:32:07.749Z,1.60
2018-11-07T12:33:07.753Z,1.30
2018-11-07T12:34:07.738Z,2.30
2018-11-07T12:35:07.714Z,2.10
2018-11-07T12:36:07.709Z,2.00
2018-11-07T12:37:07.692Z,2.40
2018-11-07T12:38:07.683Z,2.10
2018-11-07T12:39:07.684Z,1.70
2018-11-07T12:40:07.659Z,1.90
2018-11-07T12:41:07.650Z,1.50
2018-11-07T12:42:07.638Z,2.80
2018-11-07T12:43:07.626Z,1.50
2018-11-07T12:44:07.632Z,1.00
2018-11-07T12:45:07.605Z,1.20
2018-11-07T12:46:07.607Z,2.40
2018-11-07T12:47:07.583Z,3.50
2018-11-07T12:48:07.572Z,1.90
2018-11-07T12:49:07.565Z,1.90
2018-11-07T12:50:07.722Z,3.50
2018-11-07T12:51:07.539Z,2.90
2018-11-07T12:52:07.542Z,4.90
2018-11-07T12:53:07.517Z,2.10
2018-11-07T12:54:07.505Z,1.50
2018-11-07T12:55:07.498Z,1.30
2018-11-07T12:56:07.483Z,1.70
2018-11-07T12:57:07.545Z,1.50
2018-11-07T12:58:07.552Z,1.40
2018-11-07T12:59:07.455Z,3.00
2018-11-07T13:00:07.441Z,1.40
2018-11-07T13:01:07.468Z,2.00
2018-11-07T13:02:07.418Z,2.70
2018-11-07T13:03:07.489Z,2.20